Murray, Nebraska
Current Conditions -  °F | °C
As of 4:15 PM on Tuesday 25 Nov 2014 (Local Time) from KPMV Reporting Station
Clear Clear  
Wind Chill: 36°   Ceiling: Unl
Heat Index: 41°   Visibility: 10mi
Dew Point: 24°   Wind: 8mph
Humidity: 50%   Direction: 150°SSE
Pressure: 29.97"   Gusts: NA
Location:  40.92°N, 95.93°W
Report Text: KPMV 252215Z AUTO 15007KT 10SM CLR 05/M04 A2997 RMK AO2 T00521044
Loading
Personal Weather Stations






























Interactive Weather Map New forecast layout! Learn more

10-Day Weather Forecast

Advertisements
Track Severe Weather on mobile